sensor_id;sensor_type;location;lat;lon;timestamp;temperature;humidity
33673;DHT22;20011;51.510;9.942;2023-05-07T00:02:18;14.00;99.90
33673;DHT22;20011;51.510;9.942;2023-05-07T00:04:45;13.90;99.90
33673;DHT22;20011;51.510;9.942;2023-05-07T00:07:12;13.90;99.90
33673;DHT22;20011;51.510;9.942;2023-05-07T00:09:39;13.90;99.90
33673;DHT22;20011;51.510;9.942;2023-05-07T00:12:07;13.90;99.90
33673;DHT22;20011;51.510;9.942;2023-05-07T00:14:34;13.90;99.90
33673;DHT22;20011;51.510;9.942;2023-05-07T00:17:01;13.90;99.90
33673;DHT22;20011;51.510;9.942;2023-05-07T00:19:28;14.60;99.90
33673;DHT22;20011;51.510;9.942;2023-05-07T00:21:55;13.90;99.90
33673;DHT22;20011;51.510;9.942;2023-05-07T00:24:22;13.90;99.90
33673;DHT22;20011;51.510;9.942;2023-05-07T00:26:49;13.90;99.90
33673;DHT22;20011;51.510;9.942;2023-05-07T00:29:16;13.90;99.90
33673;DHT22;20011;51.510;9.942;2023-05-07T00:31:43;13.90;99.90
33673;DHT22;20011;51.510;9.942;2023-05-07T00:34:10;13.80;99.90
33673;DHT22;20011;51.510;9.942;2023-05-07T00:36:37;13.80;99.90
33673;DHT22;20011;51.510;9.942;2023-05-07T00:39:04;13.80;99.90
33673;DHT22;20011;51.510;9.942;2023-05-07T00:41:31;13.80;99.90
33673;DHT22;20011;51.510;9.942;2023-05-07T00:43:58;13.80;99.90
33673;DHT22;20011;51.510;9.942;2023-05-07T00:46:25;13.80;99.90
33673;DHT22;20011;51.510;9.942;2023-05-07T00:48:53;13.80;99.90
33673;DHT22;20011;51.510;9.942;2023-05-07T00:51:20;13.80;99.90
33673;DHT22;20011;51.510;9.942;2023-05-07T00:53:47;13.80;99.90
33673;DHT22;20011;51.510;9.942;2023-05-07T00:56:14;13.80;99.90
33673;DHT22;20011;51.510;9.942;2023-05-07T00:58:42;13.80;99.90
33673;DHT22;20011;51.510;9.942;2023-05-07T01:01:09;13.80;99.90
33673;DHT22;20011;51.510;9.942;2023-05-07T01:03:36;13.70;99.90
33673;DHT22;20011;51.510;9.942;2023-05-07T01:06:05;13.70;99.90
33673;DHT22;20011;51.510;9.942;2023-05-07T01:08:34;13.70;99.90
33673;DHT22;20011;51.510;9.942;2023-05-07T01:11:02;13.70;99.90
33673;DHT22;20011;51.510;9.942;2023-05-07T01:13:30;13.70;99.90
33673;DHT22;20011;51.510;9.942;2023-05-07T01:15:57;13.70;99.90
33673;DHT22;20011;51.510;9.942;2023-05-07T01:18:24;13.80;99.90
33673;DHT22;20011;51.510;9.942;2023-05-07T01:20:52;13.70;99.90
33673;DHT22;20011;51.510;9.942;2023-05-07T01:23:21;13.70;99.90
33673;DHT22;20011;51.510;9.942;2023-05-07T01:25:52;13.70;99.90
33673;DHT22;20011;51.510;9.942;2023-05-07T01:28:21;13.50;99.90
33673;DHT22;20011;51.510;9.942;2023-05-07T01:30:55;13.70;99.90
33673;DHT22;20011;51.510;9.942;2023-05-07T01:33:23;13.60;99.90
33673;DHT22;20011;51.510;9.942;2023-05-07T01:35:53;13.60;99.90
33673;DHT22;20011;51.510;9.942;2023-05-07T01:38:21;13.50;99.90
33673;DHT22;20011;51.510;9.942;2023-05-07T01:40:49;13.60;99.90
33673;DHT22;20011;51.510;9.942;2023-05-07T01:43:17;13.60;99.90
33673;DHT22;20011;51.510;9.942;2023-05-07T01:45:45;13.60;99.90
33673;DHT22;20011;51.510;9.942;2023-05-07T01:48:14;13.50;99.90
33673;DHT22;20011;51.510;9.942;2023-05-07T01:50:42;13.60;99.90
33673;DHT22;20011;51.510;9.942;2023-05-07T01:53:09;13.60;99.90
33673;DHT22;20011;51.510;9.942;2023-05-07T01:55:36;13.60;99.90
33673;DHT22;20011;51.510;9.942;2023-05-07T01:58:04;13.50;99.90
33673;DHT22;20011;51.510;9.942;2023-05-07T02:00:31;13.50;99.90
33673;DHT22;20011;51.510;9.942;2023-05-07T02:02:58;13.50;99.90
33673;DHT22;20011;51.510;9.942;2023-05-07T02:05:34;13.50;99.90
33673;DHT22;20011;51.510;9.942;2023-05-07T02:08:11;13.60;99.90
33673;DHT22;20011;51.510;9.942;2023-05-07T02:10:38;13.50;99.90
33673;DHT22;20011;51.510;9.942;2023-05-07T02:13:06;13.50;99.90
33673;DHT22;20011;51.510;9.942;2023-05-07T02:15:33;13.50;99.90
33673;DHT22;20011;51.510;9.942;2023-05-07T02:18:04;13.50;99.90
33673;DHT22;20011;51.510;9.942;2023-05-07T02:20:32;13.40;99.90
33673;DHT22;20011;51.510;9.942;2023-05-07T02:22:59;13.40;99.90
33673;DHT22;20011;51.510;9.942;2023-05-07T02:25:28;13.40;99.90
33673;DHT22;20011;51.510;9.942;2023-05-07T02:27:58;13.40;99.90
33673;DHT22;20011;51.510;9.942;2023-05-07T02:30:37;13.40;99.90
33673;DHT22;20011;51.510;9.942;2023-05-07T02:33:05;13.30;99.90
33673;DHT22;20011;51.510;9.942;2023-05-07T02:35:33;13.30;99.90
33673;DHT22;20011;51.510;9.942;2023-05-07T02:38:00;13.40;99.90
33673;DHT22;20011;51.510;9.942;2023-05-07T02:40:27;13.30;99.90
33673;DHT22;20011;51.510;9.942;2023-05-07T02:42:54;13.30;99.90
33673;DHT22;20011;51.510;9.942;2023-05-07T02:45:21;13.30;99.90
33673;DHT22;20011;51.510;9.942;2023-05-07T02:47:51;13.30;99.90
33673;DHT22;20011;51.510;9.942;2023-05-07T02:50:19;13.30;99.90
33673;DHT22;20011;51.510;9.942;2023-05-07T02:52:46;13.30;99.90
33673;DHT22;20011;51.510;9.942;2023-05-07T02:55:14;13.30;99.90
33673;DHT22;20011;51.510;9.942;2023-05-07T02:57:40;13.30;99.90
33673;DHT22;20011;51.510;9.942;2023-05-07T03:00:16;13.60;99.90
33673;DHT22;20011;51.510;9.942;2023-05-07T03:02:50;13.30;99.90
33673;DHT22;20011;51.510;9.942;2023-05-07T03:05:18;13.30;99.90
33673;DHT22;20011;51.510;9.942;2023-05-07T03:07:44;13.20;99.90
33673;DHT22;20011;51.510;9.942;2023-05-07T03:10:13;13.20;99.90
33673;DHT22;20011;51.510;9.942;2023-05-07T03:12:41;13.20;99.90
33673;DHT22;20011;51.510;9.942;2023-05-07T03:15:10;13.20;99.90
33673;DHT22;20011;51.510;9.942;2023-05-07T03:17:39;13.20;99.90
33673;DHT22;20011;51.510;9.942;2023-05-07T03:20:07;13.20;99.90
33673;DHT22;20011;51.510;9.942;2023-05-07T03:22:34;13.20;99.90
33673;DHT22;20011;51.510;9.942;2023-05-07T03:25:01;13.20;99.90
33673;DHT22;20011;51.510;9.942;2023-05-07T03:27:28;13.20;99.90
33673;DHT22;20011;51.510;9.942;2023-05-07T03:29:55;13.20;99.90
33673;DHT22;20011;51.510;9.942;2023-05-07T03:32:22;13.10;99.90
33673;DHT22;20011;51.510;9.942;2023-05-07T03:34:50;13.20;99.90
33673;DHT22;20011;51.510;9.942;2023-05-07T03:37:17;13.10;99.90
33673;DHT22;20011;51.510;9.942;2023-05-07T03:39:44;13.10;99.90
33673;DHT22;20011;51.510;9.942;2023-05-07T03:42:11;13.40;99.90
33673;DHT22;20011;51.510;9.942;2023-05-07T03:44:39;13.10;99.90
33673;DHT22;20011;51.510;9.942;2023-05-07T03:47:05;13.10;99.90
33673;DHT22;20011;51.510;9.942;2023-05-07T03:49:33;13.10;99.90
33673;DHT22;20011;51.510;9.942;2023-05-07T03:54:28;13.10;99.90
33673;DHT22;20011;51.510;9.942;2023-05-07T03:56:55;13.10;99.90
33673;DHT22;20011;51.510;9.942;2023-05-07T03:59:22;13.10;99.90
33673;DHT22;20011;51.510;9.942;2023-05-07T04:01:49;13.10;99.90
33673;DHT22;20011;51.510;9.942;2023-05-07T04:04:20;13.00;99.90
33673;DHT22;20011;51.510;9.942;2023-05-07T04:06:48;13.00;99.90
33673;DHT22;20011;51.510;9.942;2023-05-07T04:09:15;13.00;99.90
33673;DHT22;20011;51.510;9.942;2023-05-07T04:11:42;13.00;99.90
33673;DHT22;20011;51.510;9.942;2023-05-07T04:14:10;13.00;99.90
33673;DHT22;20011;51.510;9.942;2023-05-07T04:16:37;12.90;99.90
33673;DHT22;20011;51.510;9.942;2023-05-07T04:19:05;12.90;99.90
33673;DHT22;20011;51.510;9.942;2023-05-07T04:21:33;12.90;99.90
33673;DHT22;20011;51.510;9.942;2023-05-07T04:24:02;12.90;99.90
33673;DHT22;20011;51.510;9.942;2023-05-07T04:26:30;12.90;99.90
33673;DHT22;20011;51.510;9.942;2023-05-07T04:28:57;12.90;99.90
33673;DHT22;20011;51.510;9.942;2023-05-07T04:33:58;12.80;99.90
33673;DHT22;20011;51.510;9.942;2023-05-07T04:36:26;12.80;99.90
33673;DHT22;20011;51.510;9.942;2023-05-07T04:38:59;12.80;99.90
33673;DHT22;20011;51.510;9.942;2023-05-07T04:41:26;12.80;99.90
33673;DHT22;20011;51.510;9.942;2023-05-07T04:43:55;12.80;99.90
33673;DHT22;20011;51.510;9.942;2023-05-07T04:46:23;12.90;99.90
33673;DHT22;20011;51.510;9.942;2023-05-07T04:48:52;12.80;99.90
33673;DHT22;20011;51.510;9.942;2023-05-07T04:51:19;12.80;99.90
33673;DHT22;20011;51.510;9.942;2023-05-07T04:53:47;12.90;99.90
33673;DHT22;20011;51.510;9.942;2023-05-07T04:56:14;12.90;99.90
33673;DHT22;20011;51.510;9.942;2023-05-07T04:58:43;12.80;99.90
33673;DHT22;20011;51.510;9.942;2023-05-07T05:01:10;12.80;99.90
33673;DHT22;20011;51.510;9.942;2023-05-07T05:03:38;12.80;99.90
33673;DHT22;20011;51.510;9.942;2023-05-07T05:06:07;12.80;99.90
33673;DHT22;20011;51.510;9.942;2023-05-07T05:08:34;12.80;99.90
33673;DHT22;20011;51.510;9.942;2023-05-07T05:11:03;12.80;99.90
33673;DHT22;20011;51.510;9.942;2023-05-07T05:13:33;12.80;99.90
33673;DHT22;20011;51.510;9.942;2023-05-07T05:16:07;12.80;99.90
33673;DHT22;20011;51.510;9.942;2023-05-07T05:18:34;12.80;99.90
33673;DHT22;20011;51.510;9.942;2023-05-07T05:21:01;12.80;99.90
33673;DHT22;20011;51.510;9.942;2023-05-07T05:23:29;12.80;99.90
33673;DHT22;20011;51.510;9.942;2023-05-07T05:25:57;12.80;99.90
33673;DHT22;20011;51.510;9.942;2023-05-07T05:28:26;12.80;99.90
33673;DHT22;20011;51.510;9.942;2023-05-07T05:30:55;12.80;99.90
33673;DHT22;20011;51.510;9.942;2023-05-07T05:33:23;12.80;99.90
33673;DHT22;20011;51.510;9.942;2023-05-07T05:35:50;12.80;99.90
33673;DHT22;20011;51.510;9.942;2023-05-07T05:38:17;12.80;99.90
33673;DHT22;20011;51.510;9.942;2023-05-07T05:40:45;12.80;99.90
33673;DHT22;20011;51.510;9.942;2023-05-07T05:43:11;12.90;99.90
33673;DHT22;20011;51.510;9.942;2023-05-07T05:45:38;12.80;99.90
33673;DHT22;20011;51.510;9.942;2023-05-07T05:48:06;12.80;99.90
33673;DHT22;20011;51.510;9.942;2023-05-07T05:50:33;12.90;99.90
33673;DHT22;20011;51.510;9.942;2023-05-07T05:53:03;12.80;99.90
33673;DHT22;20011;51.510;9.942;2023-05-07T05:55:30;12.90;99.90
33673;DHT22;20011;51.510;9.942;2023-05-07T05:58:02;12.90;99.90
33673;DHT22;20011;51.510;9.942;2023-05-07T06:00:32;12.90;99.90
33673;DHT22;20011;51.510;9.942;2023-05-07T06:03:03;12.90;99.90
33673;DHT22;20011;51.510;9.942;2023-05-07T06:05:30;12.80;99.90
33673;DHT22;20011;51.510;9.942;2023-05-07T06:07:58;12.80;99.90
33673;DHT22;20011;51.510;9.942;2023-05-07T06:10:28;12.80;99.90
33673;DHT22;20011;51.510;9.942;2023-05-07T06:12:57;12.80;99.90
33673;DHT22;20011;51.510;9.942;2023-05-07T06:15:24;12.80;99.90
33673;DHT22;20011;51.510;9.942;2023-05-07T06:17:52;12.80;99.90
33673;DHT22;20011;51.510;9.942;2023-05-07T06:20:19;12.80;99.90
33673;DHT22;20011;51.510;9.942;2023-05-07T06:22:47;12.80;99.90
33673;DHT22;20011;51.510;9.942;2023-05-07T06:25:15;12.80;99.90
33673;DHT22;20011;51.510;9.942;2023-05-07T06:27:43;12.80;99.90
33673;DHT22;20011;51.510;9.942;2023-05-07T06:30:10;12.80;99.90
33673;DHT22;20011;51.510;9.942;2023-05-07T06:32:37;12.80;99.90
33673;DHT22;20011;51.510;9.942;2023-05-07T06:35:05;12.80;99.90
33673;DHT22;20011;51.510;9.942;2023-05-07T06:37:35;12.80;99.90
33673;DHT22;20011;51.510;9.942;2023-05-07T06:40:05;12.80;99.90
33673;DHT22;20011;51.510;9.942;2023-05-07T06:42:36;12.80;99.90
33673;DHT22;20011;51.510;9.942;2023-05-07T06:45:23;12.80;99.90
33673;DHT22;20011;51.510;9.942;2023-05-07T06:47:53;12.80;99.90
33673;DHT22;20011;51.510;9.942;2023-05-07T06:50:22;12.90;99.90
33673;DHT22;20011;51.510;9.942;2023-05-07T06:52:50;12.80;99.90
33673;DHT22;20011;51.510;9.942;2023-05-07T06:55:17;12.80;99.90
33673;DHT22;20011;51.510;9.942;2023-05-07T06:57:46;12.80;99.90
33673;DHT22;20011;51.510;9.942;2023-05-07T07:00:14;12.80;99.90
33673;DHT22;20011;51.510;9.942;2023-05-07T07:02:48;12.80;99.90
33673;DHT22;20011;51.510;9.942;2023-05-07T07:05:17;12.90;99.90
33673;DHT22;20011;51.510;9.942;2023-05-07T07:07:44;12.90;99.90
33673;DHT22;20011;51.510;9.942;2023-05-07T07:10:11;12.80;99.90
33673;DHT22;20011;51.510;9.942;2023-05-07T07:12:38;12.90;99.90
33673;DHT22;20011;51.510;9.942;2023-05-07T07:15:06;12.80;99.90
33673;DHT22;20011;51.510;9.942;2023-05-07T07:17:33;12.90;99.90
33673;DHT22;20011;51.510;9.942;2023-05-07T07:20:00;12.80;99.90
33673;DHT22;20011;51.510;9.942;2023-05-07T07:22:29;12.80;99.90
33673;DHT22;20011;51.510;9.942;2023-05-07T07:24:56;12.80;99.90
33673;DHT22;20011;51.510;9.942;2023-05-07T07:27:23;12.80;99.90
33673;DHT22;20011;51.510;9.942;2023-05-07T07:29:50;12.90;99.90
33673;DHT22;20011;51.510;9.942;2023-05-07T07:32:17;12.90;99.90
33673;DHT22;20011;51.510;9.942;2023-05-07T07:34:45;12.90;99.90
33673;DHT22;20011;51.510;9.942;2023-05-07T07:37:13;12.90;99.90
33673;DHT22;20011;51.510;9.942;2023-05-07T07:39:40;12.90;99.90
33673;DHT22;20011;51.510;9.942;2023-05-07T07:42:08;12.90;99.90
33673;DHT22;20011;51.510;9.942;2023-05-07T07:44:35;13.00;99.90
33673;DHT22;20011;51.510;9.942;2023-05-07T07:47:06;12.90;99.90
33673;DHT22;20011;51.510;9.942;2023-05-07T07:49:34;13.00;99.90
33673;DHT22;20011;51.510;9.942;2023-05-07T07:52:05;12.90;99.90
33673;DHT22;20011;51.510;9.942;2023-05-07T07:54:34;12.90;99.90
33673;DHT22;20011;51.510;9.942;2023-05-07T07:57:03;13.00;99.90
33673;DHT22;20011;51.510;9.942;2023-05-07T07:59:32;12.90;99.90
33673;DHT22;20011;51.510;9.942;2023-05-07T08:01:59;12.90;99.90
33673;DHT22;20011;51.510;9.942;2023-05-07T08:04:28;12.90;99.90
33673;DHT22;20011;51.510;9.942;2023-05-07T08:06:57;12.90;99.90
33673;DHT22;20011;51.510;9.942;2023-05-07T08:09:24;12.90;99.90
33673;DHT22;20011;51.510;9.942;2023-05-07T08:11:53;12.90;99.90
33673;DHT22;20011;51.510;9.942;2023-05-07T08:14:21;13.00;99.90
33673;DHT22;20011;51.510;9.942;2023-05-07T08:16:48;12.90;99.90
33673;DHT22;20011;51.510;9.942;2023-05-07T08:19:15;12.90;99.90
33673;DHT22;20011;51.510;9.942;2023-05-07T08:21:43;12.90;99.90
33673;DHT22;20011;51.510;9.942;2023-05-07T08:24:11;12.90;99.90
33673;DHT22;20011;51.510;9.942;2023-05-07T08:26:39;12.90;99.90
33673;DHT22;20011;51.510;9.942;2023-05-07T08:29:08;12.90;99.90
33673;DHT22;20011;51.510;9.942;2023-05-07T08:31:35;13.00;99.90
33673;DHT22;20011;51.510;9.942;2023-05-07T08:34:03;13.00;99.90
33673;DHT22;20011;51.510;9.942;2023-05-07T08:36:36;13.00;99.90
33673;DHT22;20011;51.510;9.942;2023-05-07T08:39:03;13.00;99.90
33673;DHT22;20011;51.510;9.942;2023-05-07T08:41:30;13.00;99.90
33673;DHT22;20011;51.510;9.942;2023-05-07T08:43:58;13.00;99.90
33673;DHT22;20011;51.510;9.942;2023-05-07T08:46:31;13.00;99.90
33673;DHT22;20011;51.510;9.942;2023-05-07T08:48:59;13.00;99.90
33673;DHT22;20011;51.510;9.942;2023-05-07T08:51:27;13.00;99.90
33673;DHT22;20011;51.510;9.942;2023-05-07T08:53:54;13.00;99.90
33673;DHT22;20011;51.510;9.942;2023-05-07T08:56:25;13.00;99.90
33673;DHT22;20011;51.510;9.942;2023-05-07T08:58:54;13.00;99.90
33673;DHT22;20011;51.510;9.942;2023-05-07T09:01:27;13.00;99.90
33673;DHT22;20011;51.510;9.942;2023-05-07T09:03:55;13.00;99.90
33673;DHT22;20011;51.510;9.942;2023-05-07T09:06:23;13.00;99.90
33673;DHT22;20011;51.510;9.942;2023-05-07T09:08:54;13.10;99.90
33673;DHT22;20011;51.510;9.942;2023-05-07T09:11:24;13.10;99.90
33673;DHT22;20011;51.510;9.942;2023-05-07T09:13:55;13.10;99.90
33673;DHT22;20011;51.510;9.942;2023-05-07T09:16:25;13.10;99.90
33673;DHT22;20011;51.510;9.942;2023-05-07T09:18:54;13.10;99.90
33673;DHT22;20011;51.510;9.942;2023-05-07T09:21:22;13.10;99.90
33673;DHT22;20011;51.510;9.942;2023-05-07T09:23:54;13.10;99.90
33673;DHT22;20011;51.510;9.942;2023-05-07T09:26:25;13.10;99.90
33673;DHT22;20011;51.510;9.942;2023-05-07T09:28:52;13.20;99.90
33673;DHT22;20011;51.510;9.942;2023-05-07T09:31:20;13.20;99.90
33673;DHT22;20011;51.510;9.942;2023-05-07T09:33:48;13.20;99.90
33673;DHT22;20011;51.510;9.942;2023-05-07T09:36:16;13.20;99.90
33673;DHT22;20011;51.510;9.942;2023-05-07T09:38:45;13.20;99.90
33673;DHT22;20011;51.510;9.942;2023-05-07T09:41:13;13.20;99.90
33673;DHT22;20011;51.510;9.942;2023-05-07T09:43:54;13.30;99.90
33673;DHT22;20011;51.510;9.942;2023-05-07T09:46:29;13.30;99.90
33673;DHT22;20011;51.510;9.942;2023-05-07T09:48:59;13.30;99.90
33673;DHT22;20011;51.510;9.942;2023-05-07T09:51:38;13.30;99.90
33673;DHT22;20011;51.510;9.942;2023-05-07T09:54:07;13.30;99.90
33673;DHT22;20011;51.510;9.942;2023-05-07T09:56:38;13.30;99.90
33673;DHT22;20011;51.510;9.942;2023-05-07T09:59:07;13.40;99.90
33673;DHT22;20011;51.510;9.942;2023-05-07T10:01:36;13.30;99.90
33673;DHT22;20011;51.510;9.942;2023-05-07T10:04:03;13.40;99.90
33673;DHT22;20011;51.510;9.942;2023-05-07T10:06:32;13.40;99.90
33673;DHT22;20011;51.510;9.942;2023-05-07T10:08:59;13.40;99.90
33673;DHT22;20011;51.510;9.942;2023-05-07T10:11:28;13.40;99.90
33673;DHT22;20011;51.510;9.942;2023-05-07T10:13:55;13.40;99.90
33673;DHT22;20011;51.510;9.942;2023-05-07T10:16:23;13.40;99.90
33673;DHT22;20011;51.510;9.942;2023-05-07T10:18:50;13.40;99.90
33673;DHT22;20011;51.510;9.942;2023-05-07T10:21:23;13.40;99.90
33673;DHT22;20011;51.510;9.942;2023-05-07T10:24:07;13.50;99.90
33673;DHT22;20011;51.510;9.942;2023-05-07T10:26:47;13.40;99.90
33673;DHT22;20011;51.510;9.942;2023-05-07T10:32:39;13.40;99.90
33673;DHT22;20011;51.510;9.942;2023-05-07T10:35:20;13.50;99.90
33673;DHT22;20011;51.510;9.942;2023-05-07T10:37:50;13.50;99.90
33673;DHT22;20011;51.510;9.942;2023-05-07T10:40:20;13.50;99.90
33673;DHT22;20011;51.510;9.942;2023-05-07T10:42:57;13.60;99.90
33673;DHT22;20011;51.510;9.942;2023-05-07T10:45:29;13.60;99.90
33673;DHT22;20011;51.510;9.942;2023-05-07T10:48:28;13.70;99.90
33673;DHT22;20011;51.510;9.942;2023-05-07T10:51:21;13.70;99.90
33673;DHT22;20011;51.510;9.942;2023-05-07T10:56:42;13.80;99.90
33673;DHT22;20011;51.510;9.942;2023-05-07T11:02:01;13.80;99.90
33673;DHT22;20011;51.510;9.942;2023-05-07T11:05:19;13.80;99.90
33673;DHT22;20011;51.510;9.942;2023-05-07T11:07:56;13.80;99.90
33673;DHT22;20011;51.510;9.942;2023-05-07T11:10:48;13.80;99.90
33673;DHT22;20011;51.510;9.942;2023-05-07T11:16:24;13.80;99.90
33673;DHT22;20011;51.510;9.942;2023-05-07T11:19:00;13.80;99.90
33673;DHT22;20011;51.510;9.942;2023-05-07T11:21:38;13.90;99.90
33673;DHT22;20011;51.510;9.942;2023-05-07T11:24:26;13.80;99.90
33673;DHT22;20011;51.510;9.942;2023-05-07T11:26:57;13.80;99.90
33673;DHT22;20011;51.510;9.942;2023-05-07T11:29:26;13.80;99.90
33673;DHT22;20011;51.510;9.942;2023-05-07T11:32:01;13.90;99.90
33673;DHT22;20011;51.510;9.942;2023-05-07T11:34:35;13.90;99.90
33673;DHT22;20011;51.510;9.942;2023-05-07T11:37:03;14.00;99.90
33673;DHT22;20011;51.510;9.942;2023-05-07T11:40:08;13.90;99.90
33673;DHT22;20011;51.510;9.942;2023-05-07T11:42:39;14.00;99.90
33673;DHT22;20011;51.510;9.942;2023-05-07T11:45:08;14.00;99.90
33673;DHT22;20011;51.510;9.942;2023-05-07T11:47:36;14.00;99.90
33673;DHT22;20011;51.510;9.942;2023-05-07T11:50:06;14.00;99.90
33673;DHT22;20011;51.510;9.942;2023-05-07T11:52:34;14.10;99.90
33673;DHT22;20011;51.510;9.942;2023-05-07T11:55:02;14.10;99.90
33673;DHT22;20011;51.510;9.942;2023-05-07T11:57:33;14.10;99.90
33673;DHT22;20011;51.510;9.942;2023-05-07T12:00:01;14.10;99.90
33673;DHT22;20011;51.510;9.942;2023-05-07T12:02:40;14.20;99.90
33673;DHT22;20011;51.510;9.942;2023-05-07T12:05:09;14.20;99.90
33673;DHT22;20011;51.510;9.942;2023-05-07T12:07:36;14.20;99.90
33673;DHT22;20011;51.510;9.942;2023-05-07T12:10:06;14.20;99.90
33673;DHT22;20011;51.510;9.942;2023-05-07T12:12:40;14.20;99.90
33673;DHT22;20011;51.510;9.942;2023-05-07T12:15:09;13.70;99.90
33673;DHT22;20011;51.510;9.942;2023-05-07T12:17:37;14.30;99.90
33673;DHT22;20011;51.510;9.942;2023-05-07T12:20:05;14.40;99.90
33673;DHT22;20011;51.510;9.942;2023-05-07T12:22:33;14.40;99.90
33673;DHT22;20011;51.510;9.942;2023-05-07T12:25:00;14.40;99.90
33673;DHT22;20011;51.510;9.942;2023-05-07T12:27:26;14.40;99.90
33673;DHT22;20011;51.510;9.942;2023-05-07T12:29:54;14.40;99.90
33673;DHT22;20011;51.510;9.942;2023-05-07T12:32:21;14.50;99.90
33673;DHT22;20011;51.510;9.942;2023-05-07T12:38:13;14.40;99.90
33673;DHT22;20011;51.510;9.942;2023-05-07T12:40:45;14.50;99.90
33673;DHT22;20011;51.510;9.942;2023-05-07T12:43:20;14.50;99.90
33673;DHT22;20011;51.510;9.942;2023-05-07T12:45:50;14.00;99.90
33673;DHT22;20011;51.510;9.942;2023-05-07T12:48:17;14.40;99.90
33673;DHT22;20011;51.510;9.942;2023-05-07T12:50:49;14.40;99.90
33673;DHT22;20011;51.510;9.942;2023-05-07T12:53:17;14.50;99.90
33673;DHT22;20011;51.510;9.942;2023-05-07T12:55:48;14.50;99.90
33673;DHT22;20011;51.510;9.942;2023-05-07T13:00:52;14.50;99.90
33673;DHT22;20011;51.510;9.942;2023-05-07T13:05:51;14.60;99.90
33673;DHT22;20011;51.510;9.942;2023-05-07T13:08:38;14.70;99.90
33673;DHT22;20011;51.510;9.942;2023-05-07T13:11:12;14.60;99.90
33673;DHT22;20011;51.510;9.942;2023-05-07T13:13:40;14.70;99.90
33673;DHT22;20011;51.510;9.942;2023-05-07T13:16:10;14.70;99.90
33673;DHT22;20011;51.510;9.942;2023-05-07T13:18:38;14.80;99.90
33673;DHT22;20011;51.510;9.942;2023-05-07T13:21:06;14.80;99.90
33673;DHT22;20011;51.510;9.942;2023-05-07T13:23:33;14.80;99.90
33673;DHT22;20011;51.510;9.942;2023-05-07T13:26:00;14.80;99.90
33673;DHT22;20011;51.510;9.942;2023-05-07T13:28:37;14.80;99.90
33673;DHT22;20011;51.510;9.942;2023-05-07T13:31:04;14.80;99.90
33673;DHT22;20011;51.510;9.942;2023-05-07T13:33:31;14.80;99.90
33673;DHT22;20011;51.510;9.942;2023-05-07T13:35:59;14.80;99.90
33673;DHT22;20011;51.510;9.942;2023-05-07T13:38:27;14.80;99.90
33673;DHT22;20011;51.510;9.942;2023-05-07T13:40:54;14.70;99.90
33673;DHT22;20011;51.510;9.942;2023-05-07T13:43:21;14.70;99.90
33673;DHT22;20011;51.510;9.942;2023-05-07T13:45:48;14.80;99.90
33673;DHT22;20011;51.510;9.942;2023-05-07T13:48:24;14.80;99.90
33673;DHT22;20011;51.510;9.942;2023-05-07T13:50:51;14.80;99.90
33673;DHT22;20011;51.510;9.942;2023-05-07T13:53:19;14.80;99.90
33673;DHT22;20011;51.510;9.942;2023-05-07T13:55:46;14.80;99.90
33673;DHT22;20011;51.510;9.942;2023-05-07T13:58:13;14.80;99.90
33673;DHT22;20011;51.510;9.942;2023-05-07T14:00:40;14.80;99.90
33673;DHT22;20011;51.510;9.942;2023-05-07T14:03:07;14.90;99.90
33673;DHT22;20011;51.510;9.942;2023-05-07T14:05:35;14.80;99.90
33673;DHT22;20011;51.510;9.942;2023-05-07T14:08:03;14.90;99.90
33673;DHT22;20011;51.510;9.942;2023-05-07T14:10:31;14.90;99.90
33673;DHT22;20011;51.510;9.942;2023-05-07T14:12:58;14.90;99.90
33673;DHT22;20011;51.510;9.942;2023-05-07T14:15:25;14.90;99.90
33673;DHT22;20011;51.510;9.942;2023-05-07T14:17:52;14.90;99.90
33673;DHT22;20011;51.510;9.942;2023-05-07T14:20:20;14.80;99.90
33673;DHT22;20011;51.510;9.942;2023-05-07T14:25:14;14.80;99.90
33673;DHT22;20011;51.510;9.942;2023-05-07T14:27:48;14.80;99.90
33673;DHT22;20011;51.510;9.942;2023-05-07T14:32:43;14.80;99.90
33673;DHT22;20011;51.510;9.942;2023-05-07T14:35:10;14.80;99.90
33673;DHT22;20011;51.510;9.942;2023-05-07T14:37:37;14.80;99.90
33673;DHT22;20011;51.510;9.942;2023-05-07T14:40:05;14.80;99.90
33673;DHT22;20011;51.510;9.942;2023-05-07T14:42:32;14.80;99.90
33673;DHT22;20011;51.510;9.942;2023-05-07T14:47:55;15.00;99.90
33673;DHT22;20011;51.510;9.942;2023-05-07T14:51:01;14.80;99.90
33673;DHT22;20011;51.510;9.942;2023-05-07T14:53:28;14.80;99.90
33673;DHT22;20011;51.510;9.942;2023-05-07T14:55:55;14.80;99.90
33673;DHT22;20011;51.510;9.942;2023-05-07T14:58:22;14.70;99.90
33673;DHT22;20011;51.510;9.942;2023-05-07T15:00:49;14.80;99.90
33673;DHT22;20011;51.510;9.942;2023-05-07T15:03:16;14.80;99.90
33673;DHT22;20011;51.510;9.942;2023-05-07T15:05:44;14.80;99.90
33673;DHT22;20011;51.510;9.942;2023-05-07T15:08:11;14.70;99.90
33673;DHT22;20011;51.510;9.942;2023-05-07T15:10:38;14.70;99.90
33673;DHT22;20011;51.510;9.942;2023-05-07T15:13:09;14.70;99.90
33673;DHT22;20011;51.510;9.942;2023-05-07T15:15:42;14.70;99.90
33673;DHT22;20011;51.510;9.942;2023-05-07T15:18:10;14.80;99.90
33673;DHT22;20011;51.510;9.942;2023-05-07T15:20:37;14.70;99.90
33673;DHT22;20011;51.510;9.942;2023-05-07T15:23:05;14.70;99.90
33673;DHT22;20011;51.510;9.942;2023-05-07T15:25:32;14.70;99.90
33673;DHT22;20011;51.510;9.942;2023-05-07T15:28:00;14.70;99.90
33673;DHT22;20011;51.510;9.942;2023-05-07T15:30:27;14.70;99.90
33673;DHT22;20011;51.510;9.942;2023-05-07T15:32:54;14.70;99.90
33673;DHT22;20011;51.510;9.942;2023-05-07T15:35:21;14.70;99.90
33673;DHT22;20011;51.510;9.942;2023-05-07T15:37:49;14.70;99.90
33673;DHT22;20011;51.510;9.942;2023-05-07T15:40:16;14.70;99.90
33673;DHT22;20011;51.510;9.942;2023-05-07T15:42:45;14.70;99.90
33673;DHT22;20011;51.510;9.942;2023-05-07T15:47:40;14.70;99.90
33673;DHT22;20011;51.510;9.942;2023-05-07T15:50:08;14.70;99.90
33673;DHT22;20011;51.510;9.942;2023-05-07T15:52:35;14.70;99.90
33673;DHT22;20011;51.510;9.942;2023-05-07T15:55:02;14.70;99.90
33673;DHT22;20011;51.510;9.942;2023-05-07T15:57:29;14.70;99.90
33673;DHT22;20011;51.510;9.942;2023-05-07T15:59:58;14.70;99.90
33673;DHT22;20011;51.510;9.942;2023-05-07T16:02:25;14.60;99.90
33673;DHT22;20011;51.510;9.942;2023-05-07T16:04:52;14.70;99.90
33673;DHT22;20011;51.510;9.942;2023-05-07T16:07:19;14.60;99.90
33673;DHT22;20011;51.510;9.942;2023-05-07T16:09:46;14.60;99.90
33673;DHT22;20011;51.510;9.942;2023-05-07T16:12:13;14.70;99.90
33673;DHT22;20011;51.510;9.942;2023-05-07T16:14:41;14.70;99.90
33673;DHT22;20011;51.510;9.942;2023-05-07T16:17:08;14.70;99.90
33673;DHT22;20011;51.510;9.942;2023-05-07T16:19:35;14.60;99.90